地図

経路データ

SID SEASON NUMBER BASIN SUBBASIN NAME ISO_TIME NATURE LAT LON WMO_WIND WMO_PRES WMO_AGENCY TRACK_TYPE DIST2LAND LANDFALL IFLAG USA_AGENCY USA_ATCF_ID USA_LAT USA_LON USA_RECORD USA_STATUS USA_WIND USA_PRES USA_SSHS USA_R34_NE USA_R34_SE USA_R34_SW USA_R34_NW USA_R50_NE USA_R50_SE USA_R50_SW USA_R50_NW USA_R64_NE USA_R64_SE USA_R64_SW USA_R64_NW USA_POCI USA_ROCI USA_RMW USA_EYE TOKYO_LAT TOKYO_LON TOKYO_GRADE TOKYO_WIND TOKYO_PRES TOKYO_R50_DIR TOKYO_R50_LONG TOKYO_R50_SHORT TOKYO_R30_DIR TOKYO_R30_LONG TOKYO_R30_SHORT TOKYO_LAND CMA_LAT CMA_LON CMA_CAT CMA_WIND CMA_PRES HKO_LAT HKO_LON HKO_CAT HKO_WIND HKO_PRES NEWDELHI_LAT NEWDELHI_LON NEWDELHI_GRADE NEWDELHI_WIND NEWDELHI_PRES NEWDELHI_CI NEWDELHI_DP NEWDELHI_POCI REUNION_LAT REUNION_LON REUNION_TYPE REUNION_WIND REUNION_PRES REUNION_TNUM REUNION_CI REUNION_RMW REUNION_R34_NE REUNION_R34_SE REUNION_R34_SW REUNION_R34_NW REUNION_R50_NE REUNION_R50_SE REUNION_R50_SW REUNION_R50_NW REUNION_R64_NE REUNION_R64_SE REUNION_R64_SW REUNION_R64_NW BOM_LAT BOM_LON BOM_TYPE BOM_WIND BOM_PRES BOM_TNUM BOM_CI BOM_RMW BOM_R34_NE BOM_R34_SE BOM_R34_SW BOM_R34_NW BOM_R50_NE BOM_R50_SE BOM_R50_SW BOM_R50_NW BOM_R64_NE BOM_R64_SE BOM_R64_SW BOM_R64_NW BOM_ROCI BOM_POCI BOM_EYE BOM_POS_METHOD BOM_PRES_METHOD NADI_LAT NADI_LON NADI_CAT NADI_WIND NADI_PRES WELLINGTON_LAT WELLINGTON_LON WELLINGTON_WIND WELLINGTON_PRES DS824_LAT DS824_LON DS824_STAGE DS824_WIND DS824_PRES TD9636_LAT TD9636_LON TD9636_STAGE TD9636_WIND TD9636_PRES TD9635_LAT TD9635_LON TD9635_WIND TD9635_PRES TD9635_ROCI NEUMANN_LAT NEUMANN_LON NEUMANN_CLASS NEUMANN_WIND NEUMANN_PRES MLC_LAT MLC_LON MLC_CLASS MLC_WIND MLC_PRES USA_GUST BOM_GUST BOM_GUST_PER REUNION_GUST REUNION_GUST_PER USA_SEAHGT USA_SEARAD_NE USA_SEARAD_SE USA_SEARAD_SW USA_SEARAD_NW STORM_SPEED STORM_DIR
1986309N07162 1986 107 WP MM IDA 1986-11-05 00:00:00 NR 7.40000 162.400 main 1655 1655 __________O___ -1 7.40000 162.400 0 1 0
1986309N07162 1986 107 WP MM IDA 1986-11-05 03:00:00 NR 7.46071 162.423 main 1664 1664 __________P___ -1 7.46071 162.423 0 1 10
1986309N07162 1986 107 WP MM IDA 1986-11-05 06:00:00 NR 7.51684 162.424 main 1664 1664 __________P___ -1 7.51684 162.424 0 1 337
1986309N07162 1986 107 WP MM IDA 1986-11-05 09:00:00 NR 7.56386 162.384 main 1672 1665 __________P___ -1 7.56386 162.384 0 2 300
1986309N07162 1986 107 WP MM IDA 1986-11-05 12:00:00 NR 7.59719 162.279 main 1665 1651 __________P___ -1 7.59719 162.279 0 3 279
1986309N07162 1986 107 WP MM IDA 1986-11-05 15:00:00 NR 7.61223 162.090 main 1651 1630 __________P___ -1 7.61223 162.090 0 5 271
1986309N07162 1986 107 WP MM IDA 1986-11-05 18:00:00 NR 7.60430 161.794 main 1630 1604 __________P___ -1 7.60430 161.794 0 7 266
1986309N07162 1986 107 WP MM IDA 1986-11-05 21:00:00 NR 7.56856 161.371 main 1604 1555 __________P___ -1 7.56856 161.371 0 10 264
1986309N07162 1986 107 WP MM IDA 1986-11-06 00:00:00 NR 7.50000 160.800 main 1555 1499 __________O___ -1 7.50000 160.800 0 13 262
1986309N07162 1986 107 WP MM IDA 1986-11-06 03:00:00 NR 7.39506 160.070 main 1499 1438 __________P___ -1 7.39506 160.070 0 16 261
1986309N07162 1986 107 WP MM IDA 1986-11-06 06:00:00 NR 7.25677 159.214 main 1432 1359 __________P___ -1 7.25677 159.214 0 18 260
1986309N07162 1986 107 WP MM IDA 1986-11-06 09:00:00 NR 7.09003 158.276 main 1359 1288 __________P___ -1 7.09003 158.276 0 19 259
1986309N07162 1986 107 WP MM IDA 1986-11-06 12:00:00 NR 6.90000 157.300 main 1282 1215 __________O___ -1 6.90000 157.300 0 20 259
1986309N07162 1986 107 WP MM IDA 1986-11-06 15:00:00 NR 6.69678 156.313 main 1210 1145 __________P___ -1 6.69678 156.313 0 20 258
1986309N07162 1986 107 WP MM IDA 1986-11-06 18:00:00 NR 6.47287 155.305 main 1141 1080 __________P___ -1 6.47287 155.305 0 20 257
1986309N07162 1986 107 WP MM IDA 1986-11-06 21:00:00 NR 6.23744 154.319 main 1066 1013 __________P___ -1 6.23744 154.319 0 20 256
1986309N07162 1986 107 WP MM IDA 1986-11-07 00:00:00 NR 6.00000 153.400 main 1013 973 __________O___ -1 6.00000 153.400 0 18 254
1986309N07162 1986 107 WP MM IDA 1986-11-07 03:00:00 NR 5.76597 152.616 main 971 925 __________P___ -1 5.76597 152.616 0 16 253
1986309N07162 1986 107 WP MM IDA 1986-11-07 06:00:00 NR 5.53387 151.898 main 925 897 __________P___ -1 5.53387 151.898 0 15 252
1986309N07162 1986 107 WP MM IDA 1986-11-07 09:00:00 NR 5.30988 151.206 main 897 874 __________P___ -1 5.30988 151.206 0 15 253
1986309N07162 1986 107 WP MM IDA 1986-11-07 12:00:00 NR 5.10000 150.500 main 875 828 __________O___ -1 5.10000 150.500 0 15 254
1986309N07162 1986 107 WP MM IDA 1986-11-07 15:00:00 NR 4.88610 149.722 main 825 782 __________P___ -1 4.88610 149.722 0 16 255
1986309N07162 1986 107 WP MM IDA 1986-11-07 18:00:00 NR 4.68979 148.922 main 780 744 __________P___ -1 4.68979 148.922 0 16 257
1986309N07162 1986 107 WP MM IDA 1986-11-07 21:00:00 NR 4.52358 148.112 main 743 728 __________P___ -1 4.52358 148.112 0 16 260
1986309N07162 1986 107 WP MM IDA 1986-11-08 00:00:00 NR 4.40000 147.300 main 728 717 __________O___ -1 4.40000 147.300 0 16 263
1986309N07162 1986 107 WP MM IDA 1986-11-08 03:00:00 NR 4.31538 146.500 main 717 717 __________P___ -1 4.31538 146.500 0 16 266
1986309N07162 1986 107 WP MM IDA 1986-11-08 06:00:00 NR 4.27467 145.700 main 724 724 __________P___ -1 4.27467 145.700 0 16 268
1986309N07162 1986 107 WP MM IDA 1986-11-08 09:00:00 NR 4.27163 144.900 main 741 741 __________P___ -1 4.27163 144.900 0 16 271
1986309N07162 1986 107 WP MM IDA 1986-11-08 12:00:00 NR 4.30000 144.100 main 769 769 __________O___ -1 4.30000 144.100 0 17 272
1986309N07162 1986 107 WP MM IDA 1986-11-08 15:00:00 NR 4.34228 143.248 main 807 793 __________P___ -1 4.34228 143.248 0 17 274
1986309N07162 1986 107 WP MM IDA 1986-11-08 18:00:00 NR 4.41269 142.403 main 793 776 __________P___ -1 4.41269 142.403 0 16 276
1986309N07162 1986 107 WP MM IDA 1986-11-08 21:00:00 NR 4.50172 141.607 main 776 756 __________P___ -1 4.50172 141.607 0 15 277
1986309N07162 1986 107 WP MM IDA 1986-11-09 00:00:00 NR 4.60000 140.900 main 756 744 __________O___ -1 4.60000 140.900 0 13 279
1986309N07162 1986 107 WP MM IDA 1986-11-09 03:00:00 NR 4.69225 140.344 main 743 736 __________P___ -1 4.69225 140.344 0 10 281
1986309N07162 1986 107 WP MM IDA 1986-11-09 06:00:00 NR 4.79177 139.875 main 741 733 __________P___ -1 4.79177 139.875 0 9 283
1986309N07162 1986 107 WP MM IDA 1986-11-09 09:00:00 NR 4.89544 139.444 main 740 735 __________P___ -1 4.89544 139.444 0 9 283
1986309N07162 1986 107 WP MM IDA 1986-11-09 12:00:00 NR 5.00000 139.000 main 735 721 __________O___ -1 5.00000 139.000 0 10 283
1986309N07162 1986 107 WP MM IDA 1986-11-09 15:00:00 NR 5.11213 138.472 main 721 711 __________P___ -1 5.11213 138.472 0 11 282
1986309N07162 1986 107 WP MM IDA 1986-11-09 18:00:00 NR 5.22242 137.923 main 708 701 __________P___ -1 5.22242 137.923 0 11 281
1986309N07162 1986 107 WP MM IDA 1986-11-09 21:00:00 NR 5.32149 137.362 main 701 695 __________P___ -1 5.32149 137.362 0 11 279
1986309N07162 1986 107 WP MM IDA 1986-11-10 00:00:00 NR 5.40000 136.800 main 696 688 __________O___ -1 5.40000 136.800 1 25 11 275
1986309N07162 1986 107 WP MM IDA 1986-11-10 03:00:00 NR 5.41397 136.242 main 686 683 __________P___ -1 5.41397 136.242 1 25 12 273
1986309N07162 1986 107 WP MM IDA 1986-11-10 06:00:00 TS 5.46991 135.608 1004 tokyo main 694 694 _O________P___ -1 5.70000 135.300 2 1004 0 0 0 5.41238 135.685 1 25 12 278
1986309N07162 1986 107 WP MM IDA 1986-11-10 09:00:00 TS 5.59227 135.018 main 708 701 _P________P___ -1 5.91761 134.783 2 1003 0 0 5.42960 135.135 1 25 12 284
1986309N07162 1986 107 WP MM IDA 1986-11-10 12:00:00 TS 5.75714 134.471 1002 tokyo main 714 700 _O________O___ -1 6.10000 134.300 2 1002 0 0 0 5.50000 134.600 1 25 11 289
1986309N07162 1986 107 WP MM IDA 1986-11-10 15:00:00 TS 5.94284 133.984 main 700 677 _P________P___ -1 6.22245 133.877 2 1000 0 0 5.66323 134.090 1 26 9 290
1986309N07162 1986 107 WP MM IDA 1986-11-10 18:00:00 TS 6.08288 133.587 40 998 tokyo main 677 649 OOO_______P___ jtwc_wp WP231986 6.00000 133.500 30 -1 6.30000 133.500 3 40 998 0 9 50 50 0 6.10000 134.000 1 29 1002 5.88221 133.593 1 27 8 291
1986309N07162 1986 107 WP MM IDA 1986-11-10 21:00:00 TS 6.24125 133.199 main 649 630 PPP_______P___ WP231986 6.20507 133.058 30 -1 6.34991 133.165 3 40 998 0 9 50 50 6.27242 133.610 1 29 1002 6.13510 133.099 1 28 9 293
1986309N07162 1986 107 WP MM IDA 1986-11-11 00:00:00 TS 6.42667 132.773 40 998 tokyo main 630 607 OOOO______O___ jtwc_wp WP231986 6.40000 132.600 30 -1 6.40000 132.800 3 40 998 0 9 50 50 0 6.40000 133.100 1 29 1002 6.80000 132.900 TD 25 1004 6.40000 132.600 1 30 10 290
1986309N07162 1986 107 WP MM IDA 1986-11-11 03:00:00 TS 6.57631 132.249 main 601 566 PPPP______P___ WP231986 6.58495 132.115 27 -1 6.45499 132.330 3 40 998 0 9 75 75 6.47015 132.407 1 29 1002 6.89762 132.358 TD 25 1003 6.63450 132.090 1 30 11 287
1986309N07162 1986 107 WP MM IDA 1986-11-11 06:00:00 TS 6.76363 131.689 40 998 tokyo main 566 509 OOOO______P___ jtwc_wp WP231986 6.80000 131.600 25 -1 6.60000 131.800 3 40 998 0 9 100 100 0 6.60000 131.700 1 29 1002 7.00000 131.800 TD 25 1002 6.87723 131.572 1 30 12 293
1986309N07162 1986 107 WP MM IDA 1986-11-11 09:00:00 TS 7.03519 131.155 main 509 441 PPPP______P___ WP231986 7.08496 131.057 27 -1 6.91991 131.273 3 40 998 0 9 100 100 6.91979 131.185 1 29 1001 7.11992 131.215 TD 27 1000 7.13134 131.043 1 30 12 298
1986309N07162 1986 107 WP MM IDA 1986-11-11 12:00:00 TS 7.34000 130.600 40 998 tokyo main 441 375 OOOO______O___ jtwc_wp WP231986 7.40000 130.500 30 -1 7.30000 130.700 3 40 998 0 9 100 100 0 7.30000 130.700 1 29 1000 7.30000 130.600 TD 30 999 7.40000 130.500 1 30 13 298
1986309N07162 1986 107 WP MM IDA 1986-11-11 15:00:00 TS 7.62874 130.010 main 375 309 PPPP______P___ WP231986 7.69990 129.957 32 -1 7.59243 130.072 3 40 997 0 9 100 100 7.59238 130.137 1 33 997 7.57747 129.950 TD 32 997 7.68150 129.931 1 32 13 296
1986309N07162 1986 107 WP MM IDA 1986-11-11 18:00:00 TS 7.93549 129.390 40 996 tokyo main 309 248 OOOO______P___ jtwc_wp WP231986 8.00000 129.400 35 0 7.90000 129.400 3 40 996 0 9 100 100 0 7.90000 129.500 2 38 995 7.90000 129.300 TS 35 995 7.97744 129.350 1 35 14 297
1986309N07162 1986 107 WP MM IDA 1986-11-11 21:00:00 TS 8.27998 128.724 main 241 190 PPPP______P___ WP231986 8.29998 128.800 37 0 8.29264 128.655 3 42 994 0 9 112 112 8.31516 128.735 2 38 993 8.20749 128.663 TS 37 992 8.28463 128.769 1 37 15 298
1986309N07162 1986 107 WP MM IDA 1986-11-12 00:00:00 TS 8.62000 128.100 45 992 tokyo main 190 143 OOOO______O___ jtwc_wp WP231986 8.60000 128.200 40 0 8.70000 128.000 3 45 992 0 9 125 125 0 8.70000 128.000 2 38 992 8.50000 128.100 TS 40 990 8.60000 128.200 2 40 13 300
1986309N07162 1986 107 WP MM IDA 1986-11-12 03:00:00 TS 8.90445 127.610 main 143 104 PPPP______P___ WP231986 8.89242 127.635 42 0 9.05722 127.612 3 47 991 0 9 125 125 8.92978 127.455 2 38 991 8.74982 127.677 TS 42 989 8.89301 127.672 2 41 11 301
1986309N07162 1986 107 WP MM IDA 1986-11-12 06:00:00 TS 9.17938 127.171 50 990 tokyo main 108 59 OOOO______P___ jtwc_wp WP231986 9.20000 127.100 45 0 9.40000 127.300 4 50 990 0 9 125 125 0 9.10000 127.000 2 38 990 9.00000 127.300 TS 45 988 9.19690 127.156 2 42 11 302
1986309N07162 1986 107 WP MM IDA 1986-11-12 09:00:00 TS 9.46436 126.714 main 64 39 PPPP______P___ WP231986 9.53483 126.607 45 0 9.74986 126.895 4 50 990 0 9 125 125 9.25489 126.550 2 38 990 9.25488 126.880 TS 45 988 9.52735 126.638 2 43 11 303
1986309N07162 1986 107 WP MM IDA 1986-11-12 12:00:00 TS 9.80000 126.220 50 990 tokyo main 40 40 OOOO______O___ jtwc_wp WP231986 9.90000 126.100 45 0 10.1000 126.400 4 50 990 0 9 125 125 0 9.50000 126.100 2 38 990 9.60000 126.400 TS 45 988 9.90000 126.100 2 45 13 306
1986309N07162 1986 107 WP MM IDA 1986-11-12 15:00:00 TS 10.2126 125.673 main 45 0 PPPP______P___ WP231986 10.2700 125.515 42 0 10.4350 125.787 4 47 992 0 9 125 125 9.91724 125.652 2 38 990 10.0973 125.860 TS 45 989 10.3435 125.550 2 42 15 308
1986309N07162 1986 107 WP MM IDA 1986-11-12 18:00:00 TS 10.7053 125.055 45 994 tokyo main 10 0 OOOO______P___ jtwc_wp WP231986 10.7000 124.900 40 0 10.8000 125.100 3 45 994 0 9 125 125 0 10.5000 125.100 2 38 990 10.7000 125.200 TS 45 990 10.8266 124.974 2 40 17 310
1986309N07162 1986 107 WP MM IDA 1986-11-12 21:00:00 TS 11.2887 124.372 main 0 0 PPPP______P___ WP231986 11.2347 124.322 37 0 11.2421 124.445 3 45 994 0 9 125 125 11.2501 124.345 2 38 990 11.3950 124.388 TS 42 990 11.3215 124.362 2 37 18 309
1986309N07162 1986 107 WP MM IDA 1986-11-13 00:00:00 TS 11.8600 123.620 45 994 tokyo main 10 0 OOOO______O___ jtwc_wp WP231986 11.8000 123.700 35 0 11.7000 123.700 3 45 994 0 9 125 125 0 12.0000 123.500 2 38 990 12.0000 123.500 TS 40 990 11.8000 123.700 2 35 19 304
1986309N07162 1986 107 WP MM IDA 1986-11-13 03:00:00 TS 12.3200 122.799 main 44 44 PPPP______P___ WP231986 12.3374 122.980 32 -1 12.1377 122.765 3 42 995 0 9 125 125 12.5750 122.662 2 38 990 12.2874 122.634 TS 40 991 12.2625 122.956 2 33 18 298
1986309N07162 1986 107 WP MM IDA 1986-11-13 06:00:00 TS 12.6996 121.973 40 996 tokyo main 44 0 OOOO______P___ jtwc_wp WP231986 12.8000 122.200 30 -1 12.5000 121.800 3 40 996 0 9 125 125 0 13.0000 121.900 2 38 990 12.5000 121.800 TS 40 993 12.6980 122.166 2 32 17 295
1986309N07162 1986 107 WP MM IDA 1986-11-13 09:00:00 TS 13.0322 121.206 main 0 0 PPPP______P___ WP231986 13.1449 121.392 30 -1 12.7223 120.947 3 40 996 0 9 125 125 13.2945 121.327 2 38 990 12.9149 120.998 TS 37 994 13.0844 121.368 2 31 16 293
1986309N07162 1986 107 WP MM IDA 1986-11-13 12:00:00 TS 13.3000 120.500 40 996 tokyo main 0 0 OOOO______O___ jtwc_wp WP231986 13.4000 120.600 30 -1 12.9000 120.200 3 40 996 0 9 125 125 0 13.5000 120.800 2 38 990 13.3000 120.300 TS 35 995 13.4000 120.600 1 30 14 290
1986309N07162 1986 107 WP MM IDA 1986-11-13 15:00:00 TS 13.5116 119.846 main 55 55 PPPP______P___ WP231986 13.6298 119.870 32 -1 13.1423 119.540 3 40 996 0 9 125 125 13.7224 120.165 2 38 990 13.4871 119.762 TS 35 995 13.5765 119.892 1 32 13 287
1986309N07162 1986 107 WP MM IDA 1986-11-13 18:00:00 TS 13.6783 119.244 40 996 tokyo main 123 123 OOOO______P___ jtwc_wp WP231986 13.8000 119.200 35 0 13.4000 119.000 3 40 996 0 9 125 125 0 13.9000 119.500 2 38 990 13.6000 119.300 TS 35 995 13.6917 119.222 1 35 12 285
1986309N07162 1986 107 WP MM IDA 1986-11-13 21:00:00 TS 13.8130 118.684 main 178 178 PPPP______P___ WP231986 13.8772 118.585 37 0 13.6422 118.585 3 42 996 0 9 137 137 13.9999 118.842 2 38 990 13.7348 118.815 TS 37 995 13.8111 118.592 1 37 11 286
1986309N07162 1986 107 WP MM IDA 1986-11-14 00:00:00 TS 13.9800 118.140 45 996 tokyo main 233 233 OOOO______O___ jtwc_wp WP231986 14.0000 118.000 40 0 13.9000 118.200 3 45 996 0 9 150 150 0 14.1000 118.200 2 38 990 13.9000 118.300 TS 40 995 14.0000 118.000 2 40 12 291
1986309N07162 1986 107 WP MM IDA 1986-11-14 03:00:00 TS 14.2223 117.558 main 277 277 PPPP______P___ WP231986 14.2900 117.378 42 0 14.1625 117.715 3 45 996 0 9 150 150 14.2324 117.577 2 43 989 14.0976 117.700 TS 40 995 14.3292 117.423 2 41 13 298
1986309N07162 1986 107 WP MM IDA 1986-11-14 06:00:00 TS 14.5674 116.997 45 996 tokyo main 324 324 OOOO______P___ jtwc_wp WP231986 14.7000 116.800 45 0 14.5000 117.200 3 45 996 0 9 150 150 0 14.5000 117.000 3 48 988 14.4000 117.100 TS 40 995 14.7369 116.883 2 42 13 308
1986309N07162 1986 107 WP MM IDA 1986-11-14 09:00:00 TS 15.0416 116.493 main 360 357 PPPP______P___ WP231986 15.1773 116.320 45 0 14.9624 116.707 3 45 996 0 9 150 150 15.0273 116.485 3 48 988 14.8399 116.577 TS 40 994 15.2012 116.376 2 43 14 317
1986309N07162 1986 107 WP MM IDA 1986-11-14 12:00:00 TS 15.5800 116.020 45 996 tokyo main 398 398 OOOO______O___ jtwc_wp WP231986 15.7000 115.900 45 0 15.5000 116.200 3 45 996 0 9 150 150 0 15.6000 116.000 3 48 988 15.4000 116.100 TS 40 993 15.7000 115.900 2 45 14 318
1986309N07162 1986 107 WP MM IDA 1986-11-14 15:00:00 TS 16.0834 115.531 main 449 449 PPPP______P___ WP231986 16.1923 115.500 42 0 16.0426 115.635 3 45 994 0 9 150 150 15.9274 115.499 3 48 988 16.0424 115.642 TS 42 991 16.2126 115.378 2 47 14 318
1986309N07162 1986 107 WP MM IDA 1986-11-14 18:00:00 TS 16.6100 115.059 45 992 tokyo main 495 465 OOOO______P___ jtwc_wp WP231986 16.7000 115.100 40 0 16.6000 115.100 3 45 992 0 9 150 150 0 16.3000 115.000 3 48 988 16.7000 115.200 TS 45 990 16.7502 114.894 2 50 15 321
1986309N07162 1986 107 WP MM IDA 1986-11-14 21:00:00 TS 17.2086 114.580 main 465 398 PPPP______P___ WP231986 17.2727 114.613 47 0 17.1950 114.625 3 47 988 0 9 175 175 16.9776 114.463 3 53 987 17.3101 114.713 TS 47 987 17.2877 114.488 2 52 14 324
1986309N07162 1986 107 WP MM IDA 1986-11-15 00:00:00 TS 17.7600 114.200 50 985 tokyo main 392 357 OOOO______O___ jtwc_wp WP231986 17.8000 114.200 55 0 17.7000 114.300 4 50 985 0 9 200 200 0 17.7000 114.000 3 58 986 17.8000 114.300 STS 50 985 17.8000 114.200 2 55 11 329
1986309N07162 1986 107 WP MM IDA 1986-11-15 03:00:00 TS 18.1601 113.978 main 352 328 PPPP______P___ WP231986 18.1573 113.960 52 0 18.0023 114.182 4 50 985 0 9 200 200 18.2373 113.704 3 58 986 18.1023 114.040 STS 50 985 18.3014 114.004 2 52 8 338
1986309N07162 1986 107 WP MM IDA 1986-11-15 06:00:00 TS 18.4937 113.887 50 985 tokyo main 328 307 OOOO______P___ jtwc_wp WP231986 18.5000 113.900 50 0 18.2000 114.200 4 50 985 0 9 200 200 0 18.7000 113.500 3 58 986 18.3000 113.900 STS 50 985 18.7685 113.936 2 50 7 350
1986309N07162 1986 107 WP MM IDA 1986-11-15 09:00:00 TS 18.8542 113.844 main 304 304 PPPP______P___ WP231986 18.9999 113.967 47 0 18.4075 114.227 4 50 987 0 9 200 200 19.1800 113.233 3 58 986 18.5074 113.790 STS 50 985 19.1764 114.001 2 47 7 3
1986309N07162 1986 107 WP MM IDA 1986-11-15 12:00:00 TS 19.1800 113.920 50 990 tokyo main 307 291 OOOO______O___ jtwc_wp WP231986 19.5000 114.200 45 0 18.6000 114.300 4 50 990 0 9 200 200 0 19.6000 113.100 3 58 986 18.7000 113.800 STS 50 985 19.5000 114.200 2 45 7 22
1986309N07162 1986 107 WP MM IDA 1986-11-15 15:00:00 TS 19.4742 114.112 main 291 285 PPPP______P___ WP231986 19.9400 114.547 40 0 18.8000 114.385 4 47 991 0 9 200 150 19.9589 113.112 3 58 986 18.9150 113.947 STS 47 986 19.7572 114.568 2 41 7 45
1986309N07162 1986 107 WP MM IDA 1986-11-15 18:00:00 TS 19.6849 114.451 45 992 tokyo main 291 282 OOOO______P___ jtwc_wp WP231986 20.2000 115.000 35 0 19.0000 114.500 3 45 992 0 4 200 100 0 20.2000 113.500 3 58 986 19.1000 114.200 TS 45 988 19.9244 115.054 2 37 9 68
1986309N07162 1986 107 WP MM IDA 1986-11-15 21:00:00 TS 19.7965 114.957 main 288 288 PPPP______P___ WP231986 20.2053 115.530 32 -1 19.2224 114.613 3 42 994 0 4 175 125 20.3430 114.602 3 58 986 19.2075 114.478 TS 45 989 20.0042 115.563 2 33 9 83
1986309N07162 1986 107 WP MM IDA 1986-11-16 00:00:00 TS 19.7895 115.411 40 996 tokyo main 301 301 OOOO______O___ jtwc_wp WP231986 20.0000 116.000 30 -1 19.4000 114.800 3 40 996 0 9 150 150 0 20.3000 115.600 3 58 987 19.3000 114.800 TS 45 990 20.0000 116.000 1 30 6 96
1986309N07162 1986 107 WP MM IDA 1986-11-16 03:00:00 TS 19.7342 115.625 main 320 320 PPPP______P___ WP231986 19.6773 116.265 27 -1 19.5102 115.150 3 42 997 0 9 150 150 20.0592 115.622 3 53 987 19.4349 115.135 TS 42 993 19.9609 116.274 1 3 117
1986309N07162 1986 107 WP MM IDA 1986-11-16 06:00:00 TS 19.6392 115.731 45 998 tokyo main 334 334 OOOO______P___ jtwc_wp WP231986 19.3000 116.400 25 -1 19.5000 115.500 3 45 998 0 9 150 150 0 19.7000 115.300 3 48 988 19.6000 115.500 TS 40 996 19.8418 116.458 1 3 134
1986309N07162 1986 107 WP MM IDA 1986-11-16 09:00:00 TS 19.5441 115.830 main 348 348 _PPP______P___ WP231986 -1 19.3449 115.688 3 45 999 0 9 175 150 19.3575 115.185 3 48 989 19.8224 115.885 TS 37 997 19.6518 116.564 1 4 149
1986309N07162 1986 107 WP MM IDA 1986-11-16 12:00:00 TS 19.3333 115.927 45 1000 tokyo main 372 372 _OOO______O___ -1 19.1000 115.800 3 45 1000 0 8 200 150 0 19.0000 115.100 3 48 990 20.0000 116.300 TS 35 998 19.4000 116.600 6 5 165
1986309N07162 1986 107 WP MM IDA 1986-11-16 15:00:00 TS 19.0406 115.977 main 407 407 _PPP______P___ -1 18.8500 115.907 3 1002 0 8 18.6799 114.997 3 48 990 20.0427 116.743 TS 32 998 19.0908 116.643 6 7 176
1986309N07162 1986 107 WP MM IDA 1986-11-16 18:00:00 TS 18.6552 115.974 1004 tokyo main 439 439 _OOO______P___ -1 18.6000 116.000 2 1004 0 0 0 18.3000 115.000 3 48 990 20.0000 117.200 TD 30 998 18.7293 116.615 6 9 182
1986309N07162 1986 107 WP MM IDA 1986-11-16 21:00:00 TS 18.1627 115.927 main 465 437 _PP_______P___ -1 18.4225 116.107 2 1005 0 0 17.7124 115.168 3 43 992 TD 18.3532 116.505 6 9 0
1986309N07162 1986 107 WP MM IDA 1986-11-17 00:00:00 TS 17.8000 116.000 1006 tokyo main 437 419 _OO_______O___ -1 18.2000 116.200 2 1006 0 0 0 17.2000 115.500 2 38 995 18.0000 116.300 6 6 167
1986309N07162 1986 107 WP MM IDA 1986-11-17 03:00:00 TS 17.5437 116.068 main 416 409 _PP_______P___ -1 17.8300 116.257 2 1006 0 0 17.0551 115.962 2 38 995 17.7461 115.985 6 5 167
1986309N07162 1986 107 WP MM IDA 1986-11-17 06:00:00 TS 17.3052 116.128 1006 tokyo main 409 389 _OO_______P___ -1 17.4000 116.300 2 1006 0 0 0 17.0000 116.500 2 38 995 17.5157 115.583 6 5 167
1986309N07162 1986 107 WP MM IDA 1986-11-17 09:00:00 TS 17.0292 116.196 main 389 381 _PP_______P___ -1 17.0000 116.350 2 1007 0 0 16.8102 117.098 2 33 997 17.2773 115.139 6 6 174
1986309N07162 1986 107 WP MM IDA 1986-11-17 12:00:00 TS 16.7000 116.200 1008 tokyo main 381 376 _OO_______O___ -1 16.6000 116.400 2 1008 0 0 0 16.5000 117.500 1 29 1000 17.0000 114.700 6 8 185
1986309N07162 1986 107 WP MM IDA 1986-11-17 15:00:00 TS 16.2849 116.120 main 386 384 _PP_______P___ -1 16.1998 116.533 2 1008 0 0 15.9996 117.515 1 29 1000 16.6552 114.311 6 9 200
1986309N07162 1986 107 WP MM IDA 1986-11-17 18:00:00 TS 15.8558 115.880 1008 tokyo main 406 406 _OO_______P___ -1 15.8000 116.500 2 1008 0 0 0 15.5000 117.200 1 29 1000 16.2674 113.940 6 11 218
1986309N07162 1986 107 WP MM IDA 1986-11-17 21:00:00 TS 15.4613 115.449 main 463 463 _PP_______P___ -1 15.3402 116.082 2 1008 0 0 15.1977 116.667 1 29 1000 15.8459 113.599 6 12 234
1986309N07162 1986 107 WP MM IDA 1986-11-18 00:00:00 TS 15.1455 114.882 1008 tokyo main 524 524 _OO_______O___ -1 15.0000 115.500 2 1008 0 0 0 15.0000 116.000 1 29 1000 15.4000 113.300 6 12 242
1986309N07162 1986 107 WP MM IDA 1986-11-18 03:00:00 TS 14.9042 114.361 main 560 503 _PP_______P___ -1 14.9200 114.973 2 1008 0 0 14.8500 115.370 1 26 1003 14.9504 113.045 6 11 242
1986309N07162 1986 107 WP MM IDA 1986-11-18 06:00:00 TS 14.6354 113.892 1008 tokyo main 502 455 _OO_______P___ -1 15.0000 114.500 2 1008 0 0 0 14.7000 114.800 1 23 1006 14.4797 112.833 6 11 231
1986309N07162 1986 107 WP MM IDA 1986-11-18 09:00:00 TS 14.2370 113.509 main 454 426 __P_______P___ -1 2 0 0 14.4798 114.363 1 23 1006 13.9942 112.654 6 10 218
1986309N07162 1986 107 WP MM IDA 1986-11-18 12:00:00 TS 13.8500 113.250 main 426 385 __O_______O___ -1 14.2000 114.000 1 23 1006 13.5000 112.500 6 9 212
1986309N07162 1986 107 WP MM IDA 1986-11-18 15:00:00 TS 13.4449 112.998 main 383 369 __P_______P___ -1 13.8874 113.635 1 23 1006 13.0023 112.362 6 9 207
1986309N07162 1986 107 WP MM IDA 1986-11-18 18:00:00 TS 13.0726 112.843 main 358 347 __O_______P___ -1 13.5000 113.300 1 23 1006 12.5027 112.235 6 8 201
1986309N07162 1986 107 WP MM IDA 1986-11-18 21:00:00 TS 12.6622 112.690 main 347 327 __P_______P___ -1 12.9925 112.977 1 23 1006 12.0017 112.115 6 9 201
1986309N07162 1986 107 WP MM IDA 1986-11-19 00:00:00 TS 12.2500 112.525 main 327 327 __O_______O___ -1 12.5000 112.700 1 23 1006 11.5000 112.000 6 6 202
1986309N07162 1986 107 WP MM IDA 1986-11-19 03:00:00 TS 12.1525 112.483 main 329 311 __P___________ -1 12.1525 112.483 1 23 1006 6 4 212
1986309N07162 1986 107 WP MM IDA 1986-11-19 06:00:00 TS 11.9000 112.300 main 314 __O___________ -1 11.9000 112.300 1 23 1006 6 6 215

デジタル台風データ・検索

IBTrACS Databaseについて

本データベースは、米国NOAAが公開する1842年以降の世界の熱帯低気圧のベストトラックデータアーカイブInternational Best Track Archive for Climate Stewardship (IBTrACS)を、ウェブで閲覧しやすい形式に変換したものです。

最終更新日:2021-10-21